createdAt,value
2023-04-28T00:03:32.134Z,23
2023-04-28T00:09:25.275Z,22.9
2023-04-28T00:15:16.509Z,22.9
2023-04-28T00:21:09.041Z,22.9
2023-04-28T00:27:00.274Z,22.9
2023-04-28T00:32:56.512Z,22.8
2023-04-28T00:38:47.954Z,22.8
2023-04-28T00:44:24.244Z,22.8
2023-04-28T00:50:00.247Z,22.8
2023-04-28T00:55:51.381Z,22.8
2023-04-28T01:01:27.200Z,22.8
2023-04-28T01:07:06.244Z,22.7
2023-04-28T01:12:57.684Z,22.7
2023-04-28T01:18:49.976Z,22.6
2023-04-28T01:24:40.861Z,22.6
2023-04-28T01:30:31.843Z,22.6
2023-04-28T01:36:23.315Z,22.6
2023-04-28T01:42:15.270Z,22.6
2023-04-28T01:48:06.894Z,22.6
2023-04-28T01:53:58.450Z,22.6
2023-04-28T01:59:51.976Z,22.5
2023-04-28T02:05:44.515Z,22.5
2023-04-28T02:11:35.837Z,22.5
2023-04-28T02:17:12.188Z,22.4
2023-04-28T02:23:06.229Z,22.4
2023-04-28T02:28:42.160Z,22.4
2023-04-28T02:34:18.926Z,22.4
2023-04-28T02:40:09.740Z,22.4
2023-04-28T02:46:01.306Z,22.4
2023-04-28T02:51:37.390Z,22.4
2023-04-28T02:57:28.852Z,22.3
2023-04-28T03:03:21.834Z,22.4
2023-04-28T03:08:59.268Z,22.3
2023-04-28T03:14:35.218Z,22.3
2023-04-28T03:19:57.197Z,22.3
2023-04-28T03:25:58.075Z,22.3
2023-04-28T03:31:33.608Z,22.3
2023-04-28T03:36:54.508Z,22.3
2023-04-28T03:42:46.553Z,22.3
2023-04-28T03:48:40.320Z,22.2
2023-04-28T03:54:30.966Z,22.2
2023-04-28T04:00:22.338Z,22.2
2023-04-28T04:06:17.716Z,22.2
2023-04-28T04:11:53.771Z,22.2
2023-04-28T04:17:46.687Z,22.2
2023-04-28T04:23:38.605Z,22.2
2023-04-28T04:29:29.650Z,22.2
2023-04-28T04:35:21.876Z,22.1
2023-04-28T04:41:13.279Z,22.1
2023-04-28T04:47:21.766Z,22.1
2023-04-28T04:53:16.350Z,22.1
2023-04-28T04:59:07.810Z,22.1
2023-04-28T05:05:08.522Z,22.1
2023-04-28T05:11:08.078Z,22.1
2023-04-28T05:17:02.867Z,22.1
2023-04-28T05:22:54.514Z,22.1
2023-04-28T05:28:46.917Z,22.1
2023-04-28T05:34:39.100Z,22
2023-04-28T05:40:30.542Z,22
2023-04-28T05:46:34.604Z,22
2023-04-28T05:52:26.660Z,22
2023-04-28T05:58:26.079Z,21.9
2023-04-28T06:04:04.448Z,21.9
2023-04-28T06:09:42.886Z,21.9
2023-04-28T06:15:19.048Z,20.3
2023-04-28T06:20:55.706Z,39
2023-04-28T06:26:17.549Z,35.5
2023-04-28T06:31:53.787Z,31.5
2023-04-28T06:37:16.818Z,31.1
2023-04-28T06:42:22.424Z,41.4
2023-04-28T06:47:46.317Z,38.9
2023-04-28T06:53:12.375Z,36.2
2023-04-28T06:59:05.254Z,37.8
2023-04-28T07:04:58.754Z,39.1
2023-04-28T07:10:54.683Z,40.3
2023-04-28T07:16:46.513Z,41.8
2023-04-28T07:22:37.997Z,43.2
2023-04-28T07:28:31.969Z,44.6
2023-04-28T07:34:41.507Z,46.1
2023-04-28T07:40:32.754Z,47.2
2023-04-28T07:46:27.797Z,48.1
2023-04-28T07:52:04.619Z,49
2023-04-28T07:57:55.766Z,50.1
2023-04-28T08:03:49.706Z,51.2
2023-04-28T08:09:43.135Z,52.1
2023-04-28T08:15:18.664Z,53.1
2023-04-28T08:21:14.160Z,54.3
2023-04-28T08:27:07.136Z,55.2
2023-04-28T08:32:28.967Z,55.9
2023-04-28T08:38:05.532Z,56.7
2023-04-28T08:43:44.869Z,57.4
2023-04-28T08:49:06.740Z,57.9
2023-04-28T09:00:20.759Z,59.4
2023-04-28T09:06:00.612Z,60.2
2023-04-28T09:11:23.710Z,60.8
2023-04-28T09:16:45.141Z,61.3
2023-04-28T09:22:54.848Z,61.9
2023-04-28T09:28:46.319Z,61.9
2023-04-28T09:34:08.114Z,59.3
2023-04-28T09:39:46.370Z,58.4
2023-04-28T09:51:00.461Z,58.6
2023-04-28T09:56:51.058Z,58.9
2023-04-28T10:04:40.229Z,59.3
2023-04-28T10:10:33.399Z,59.6
2023-04-28T10:16:09.522Z,59.6
2023-04-28T10:22:00.755Z,59.9
2023-04-28T10:27:52.510Z,60.1
2023-04-28T10:33:56.771Z,60.1
2023-04-28T10:39:59.853Z,60.3
2023-04-28T10:45:55.292Z,60.3
2023-04-28T10:52:01.425Z,60.3
2023-04-28T10:58:05.187Z,60.4
2023-04-28T11:03:57.778Z,60.1
2023-04-28T11:09:50.033Z,60.2
2023-04-28T11:15:43.954Z,60
2023-04-28T11:21:19.899Z,60.3
2023-04-28T11:27:11.371Z,60.6
2023-04-28T11:33:03.067Z,60.8
2023-04-28T11:38:55.849Z,60.8
2023-04-28T11:44:53.659Z,60.6
2023-04-28T11:50:47.014Z,60.6
2023-04-28T11:56:39.010Z,60.6
2023-04-28T12:02:32.791Z,60.1
2023-04-28T12:08:28.996Z,59.8
2023-04-28T12:14:36.486Z,59.6
2023-04-28T12:20:28.788Z,59.5
2023-04-28T12:26:05.897Z,56.7
2023-04-28T12:31:57.377Z,53.9
2023-04-28T12:37:50.725Z,63.6
2023-04-28T12:43:42.866Z,58.8
2023-04-28T12:49:36.174Z,53.2
2023-04-28T12:55:27.781Z,52.6
2023-04-28T13:01:04.306Z,62.6
2023-04-28T13:06:58.388Z,57.3
2023-04-28T13:13:00.661Z,51.7
2023-04-28T13:18:52.849Z,46.5
2023-04-28T13:24:47.068Z,47.1
2023-04-28T13:30:08.027Z,60.1
2023-04-28T13:35:59.777Z,55.1
2023-04-28T13:41:52.543Z,49.5
2023-04-28T13:47:43.838Z,44.9
2023-04-28T13:53:35.023Z,41.8
2023-04-28T13:59:27.158Z,39.6
2023-04-28T14:05:20.794Z,37.9
2023-04-28T14:11:10.945Z,36.6
2023-04-28T14:17:14.198Z,35.5
2023-04-28T14:23:05.084Z,34.6
2023-04-28T14:28:56.300Z,33.9
2023-04-28T14:34:48.967Z,33.3
2023-04-28T14:40:25.743Z,32.7
2023-04-28T14:46:17.668Z,32.3
2023-04-28T14:52:09.617Z,31.8
2023-04-28T14:58:03.481Z,31.4
2023-04-28T15:03:56.280Z,31.1
2023-04-28T15:09:36.990Z,30.8
2023-04-28T15:15:28.678Z,30.6
2023-04-28T15:21:21.883Z,30.4
2023-04-28T15:27:13.891Z,30.2
2023-04-28T15:33:06.676Z,30
2023-04-28T15:39:02.537Z,29.9
2023-04-28T15:44:54.514Z,29.8
2023-04-28T15:50:46.732Z,29.7
2023-04-28T15:56:38.949Z,29.6
2023-04-28T16:02:31.263Z,29.6
2023-04-28T16:08:24.537Z,29.5
2023-04-28T16:14:16.965Z,29.4
2023-04-28T16:20:10.039Z,29.4
2023-04-28T16:25:47.846Z,29.4
2023-04-28T16:31:40.078Z,29.3
2023-04-28T16:37:33.087Z,29.3
2023-04-28T16:43:25.378Z,29.3
2023-04-28T16:49:17.834Z,29.2
2023-04-28T16:55:10.609Z,29.2
2023-04-28T17:01:03.261Z,29.1
2023-04-28T17:06:26.535Z,29.1
2023-04-28T17:12:18.351Z,29.1
2023-04-28T17:18:13.192Z,29.1
2023-04-28T17:24:05.959Z,29
2023-04-28T17:29:57.570Z,28.9
2023-04-28T17:35:52.652Z,28.9
2023-04-28T17:41:44.916Z,28.9
2023-04-28T17:47:36.758Z,28.8
2023-04-28T17:53:30.568Z,28.8
2023-04-28T17:59:22.565Z,28.8
2023-04-28T18:05:16.051Z,28.8
2023-04-28T18:11:10.949Z,28.7
2023-04-28T18:17:05.711Z,28.7
2023-04-28T18:23:00.344Z,28.6
2023-04-28T18:28:52.458Z,28.6
2023-04-28T18:34:47.730Z,28.6
2023-04-28T18:40:39.754Z,28.6
2023-04-28T18:46:33.518Z,28.6
2023-04-28T18:52:26.999Z,28.6
2023-04-28T18:58:18.982Z,28.5
2023-04-28T19:04:12.218Z,28.5
2023-04-28T19:09:53.845Z,28.6
2023-04-28T19:15:45.169Z,28.6
2023-04-28T19:21:37.294Z,28.5
2023-04-28T19:27:30.063Z,28.5
2023-04-28T19:33:22.364Z,28.5
2023-04-28T19:39:14.470Z,28.5
2023-04-28T19:45:06.950Z,28.5
2023-04-28T19:51:00.323Z,28.4
2023-04-28T19:56:52.659Z,28.4
2023-04-28T20:02:17.298Z,28.4
2023-04-28T20:08:12.694Z,28.4
2023-04-28T20:13:49.106Z,28.3
2023-04-28T20:19:41.088Z,28.3
2023-04-28T20:25:33.173Z,28.3
2023-04-28T20:31:25.814Z,28.3
2023-04-28T20:37:17.744Z,28.2
2023-04-28T20:43:09.150Z,28.2
2023-04-28T20:49:03.384Z,28.1
2023-04-28T20:54:56.150Z,28.1
2023-04-28T21:00:48.438Z,28.1
2023-04-28T21:06:42.360Z,28.1
2023-04-28T21:12:33.641Z,28.1
2023-04-28T21:18:25.164Z,28.1
2023-04-28T21:24:01.807Z,28.1
2023-04-28T21:29:53.100Z,28.1
2023-04-28T21:35:45.072Z,28
2023-04-28T21:41:36.320Z,28
2023-04-28T21:47:13.079Z,28
2023-04-28T21:52:33.633Z,28
2023-04-28T21:58:25.183Z,27.9
2023-04-28T22:09:55.504Z,27.8
2023-04-28T22:16:03.048Z,27.8
2023-04-28T22:21:55.030Z,27.7
2023-04-28T22:27:46.504Z,27.6
2023-04-28T22:33:22.451Z,27.6
2023-04-28T22:38:58.561Z,27.6
2023-04-28T22:44:34.780Z,27.5
2023-04-28T22:50:26.184Z,27.5
2023-04-28T22:56:17.496Z,27.5
2023-04-28T23:01:56.459Z,27.4
2023-04-28T23:07:50.537Z,27.4
2023-04-28T23:13:26.480Z,27.4
2023-04-28T23:19:20.109Z,27.3
2023-04-28T23:25:12.152Z,27.3
2023-04-28T23:30:47.984Z,27.3
2023-04-28T23:36:24.653Z,27.3
2023-04-28T23:42:01.057Z,27.3
2023-04-28T23:47:37.551Z,27.3
2023-04-28T23:53:28.387Z,27.2
2023-04-28T23:59:19.488Z,27.2
